Glady, West Virginia
Current Conditions -  °F | °C
As of 1:51 AM on Friday 28 Nov 2014 (Local Time) from KEKN Reporting Station
Light Snow Light Snow  
Wind Chill: 16°   Ceiling: 1800
Heat Index: 26°   Visibility: 5mi
Dew Point: 22°   Wind: 12mph
Humidity: 84%   Direction: 300°WNW
Pressure: 30.21"   Gusts: 17mph
Location:  38.8°N, 79.72°W
Report Text: KEKN 280651Z AUTO 30010G15KT 5SM -SN BR BKN018 BKN023 OVC029 M03/M06 A3021 RMK AO2 SLP257 P0000 T10331056 TSNO
Loading
Personal Weather Stations






























Interactive Weather Map New forecast layout! Learn more

10-Day Weather Forecast

Advertisements
Track Severe Weather on mobile